Time;durP1;ratioP1;P1;durP2;ratioP2;P2;SDS_P1;SDS_P2;PMS_P1;PMS_P2;Temp;Humidity;BMP_temperature;BMP_pressure;BME280_temperature;BME280_humidity;BME280_pressure;Samples;Min_cycle;Max_cycle;Signal;HPM_P1;HPM_P2
2021/07/02 00:01:55;;;;;;;6.00;5.32;;;15.60;92.90;;;;;;5070817;28;20090;-57
2021/07/02 00:04:22;;;;;;;5.70;5.10;;;15.60;92.90;;;;;;5071968;28;20070;-56
2021/07/02 00:06:49;;;;;;;7.00;5.82;;;15.60;92.90;;;;;;5072404;28;20028;-58
2021/07/02 00:09:18;;;;;;;6.25;5.65;;;15.60;93.00;;;;;;5072755;28;20020;-54
2021/07/02 00:11:45;;;;;;;5.70;5.10;;;15.60;92.90;;;;;;5072189;28;20060;-56
2021/07/02 00:14:12;;;;;;;5.65;5.15;;;15.60;92.90;;;;;;5071266;28;20043;-55
2021/07/02 00:16:40;;;;;;;7.03;6.15;;;15.60;92.90;;;;;;5099335;28;20106;-50
2021/07/02 00:19:08;;;;;;;6.47;5.75;;;15.60;92.90;;;;;;5112890;28;20019;-53
2021/07/02 00:21:35;;;;;;;6.35;5.53;;;15.60;92.90;;;;;;5112171;28;20447;-54
2021/07/02 00:24:03;;;;;;;6.07;5.10;;;15.60;92.90;;;;;;5112605;28;20521;-49
2021/07/02 00:26:30;;;;;;;6.32;5.15;;;15.60;93.00;;;;;;5112440;27;20050;-53
2021/07/02 00:28:57;;;;;;;6.55;4.65;;;15.60;93.00;;;;;;5112253;28;20413;-54
2021/07/02 00:31:25;;;;;;;6.80;5.18;;;15.70;93.00;;;;;;5112213;28;20028;-55
2021/07/02 00:33:52;;;;;;;5.03;4.53;;;15.70;93.10;;;;;;5112405;28;20020;-58
2021/07/02 00:36:19;;;;;;;5.95;5.35;;;15.70;93.00;;;;;;5111840;27;20032;-55
2021/07/02 00:38:47;;;;;;;7.18;5.10;;;15.70;93.00;;;;;;5112316;28;20020;-46
2021/07/02 00:41:14;;;;;;;5.85;5.20;;;15.70;93.20;;;;;;5112017;28;20470;-55
2021/07/02 00:43:53;;;;;;;7.25;4.80;;;15.70;93.20;;;;;;5112351;28;20023;-55
2021/07/02 00:46:21;;;;;;;7.40;5.28;;;15.70;93.20;;;;;;5110629;28;20489;-55
2021/07/02 00:48:50;;;;;;;6.28;5.10;;;15.80;93.30;;;;;;5112290;28;20020;-57
2021/07/02 00:51:17;;;;;;;6.50;5.00;;;15.90;93.70;;;;;;5111946;28;20065;-49
2021/07/02 00:53:46;;;;;;;11.07;5.38;;;16.00;93.60;;;;;;5111649;28;20036;-55
2021/07/02 00:56:17;;;;;;;6.20;5.07;;;16.10;93.60;;;;;;5111835;28;20032;-52
2021/07/02 00:58:45;;;;;;;6.35;4.70;;;16.20;92.90;;;;;;5111995;27;20028;-52
2021/07/02 01:01:18;;;;;;;6.20;4.60;;;16.30;93.50;;;;;;5111661;28;20084;-48
2021/07/02 01:03:48;;;;;;;4.95;4.10;;;16.40;92.50;;;;;;5111879;28;20023;-48
2021/07/02 01:06:17;;;;;;;9.43;4.75;;;16.60;93.10;;;;;;5111667;28;20062;-51
2021/07/02 01:08:45;;;;;;;6.05;4.65;;;16.80;93.00;;;;;;5111823;28;20458;-50
2021/07/02 01:11:14;;;;;;;6.90;4.88;;;17.10;92.30;;;;;;5110275;28;20039;-51
2021/07/02 01:13:41;;;;;;;6.75;5.03;;;17.30;91.20;;;;;;5112132;28;20443;-49
2021/07/02 01:16:09;;;;;;;6.07;4.57;;;17.50;90.90;;;;;;5111281;28;20038;-47
2021/07/02 01:18:39;;;;;;;7.55;5.07;;;17.90;90.70;;;;;;5111378;28;20084;-50
2021/07/02 01:21:06;;;;;;;4.28;3.88;;;18.20;90.10;;;;;;5111341;28;20027;-55
2021/07/02 01:23:34;;;;;;;4.78;4.25;;;18.50;89.00;;;;;;5111906;28;20363;-46
2021/07/02 01:26:01;;;;;;;5.95;3.72;;;18.80;87.20;;;;;;5110864;28;20034;-53
2021/07/02 01:28:29;;;;;;;4.72;3.47;;;19.10;85.30;;;;;;5111424;28;20436;-51
2021/07/02 01:30:56;;;;;;;5.40;3.80;;;19.50;84.30;;;;;;5111498;28;20099;-51
2021/07/02 01:33:23;;;;;;;4.32;3.92;;;19.60;83.10;;;;;;5110537;28;20024;-54
2021/07/02 01:35:51;;;;;;;4.07;3.58;;;19.80;82.60;;;;;;5111014;28;20359;-55
2021/07/02 01:38:22;;;;;;;4.07;3.20;;;20.00;81.20;;;;;;5110669;28;20031;-51
2021/07/02 01:40:49;;;;;;;12.13;4.40;;;20.10;80.50;;;;;;5110939;28;20027;-53
2021/07/02 01:43:16;;;;;;;3.95;3.08;;;20.30;80.10;;;;;;5109553;28;20043;-53
2021/07/02 01:45:44;;;;;;;6.35;3.65;;;20.40;79.20;;;;;;5108883;28;20034;-54
2021/07/02 01:48:11;;;;;;;4.43;3.63;;;20.70;78.60;;;;;;5111062;28;20031;-56
2021/07/02 01:50:38;;;;;;;3.45;3.15;;;21.00;77.20;;;;;;5110965;28;20087;-54
2021/07/02 01:53:06;;;;;;;8.10;3.80;;;21.00;76.90;;;;;;5110887;28;20152;-55
2021/07/02 01:55:33;;;;;;;3.88;3.30;;;21.30;76.00;;;;;;5111160;28;20058;-52
2021/07/02 01:58:00;;;;;;;9.30;3.60;;;21.30;75.80;;;;;;5110264;28;20032;-50
2021/07/02 02:00:28;;;;;;;3.20;2.90;;;21.40;74.70;;;;;;5110766;28;20173;-52
2021/07/02 02:02:55;;;;;;;6.13;3.00;;;21.60;74.30;;;;;;5109662;28;20107;-49
2021/07/02 02:05:23;;;;;;;4.57;3.35;;;21.60;74.00;;;;;;5110825;28;20020;-51
2021/07/02 02:07:50;;;;;;;2.80;2.60;;;21.60;73.80;;;;;;5110796;28;20030;-54
2021/07/02 02:10:17;;;;;;;3.50;2.70;;;21.70;73.60;;;;;;5110478;28;20031;-58
2021/07/02 02:12:45;;;;;;;2.95;2.60;;;21.90;73.40;;;;;;5110448;28;20065;-52
2021/07/02 02:15:13;;;;;;;3.22;2.78;;;22.00;72.90;;;;;;5110961;28;20385;-50
2021/07/02 02:17:42;;;;;;;4.63;2.65;;;22.00;72.40;;;;;;5110446;28;20081;-56
2021/07/02 02:20:11;;;;;;;6.32;3.35;;;22.10;71.80;;;;;;5110338;28;20012;-51
2021/07/02 02:22:39;;;;;;;7.40;2.97;;;22.10;72.30;;;;;;5110438;28;20460;-52
2021/07/02 02:25:08;;;;;;;3.42;2.40;;;22.20;71.80;;;;;;5110764;28;20089;-54
2021/07/02 02:27:36;;;;;;;3.33;2.28;;;22.10;72.00;;;;;;5109857;28;20051;-52
2021/07/02 02:30:06;;;;;;;2.60;2.38;;;22.20;71.60;;;;;;5109903;28;20019;-51
2021/07/02 02:32:34;;;;;;;2.85;2.42;;;22.20;71.60;;;;;;5110591;28;20036;-55
2021/07/02 02:35:02;;;;;;;14.23;4.07;;;22.40;71.40;;;;;;5110902;28;20048;-51
2021/07/02 02:37:29;;;;;;;2.47;2.20;;;22.60;70.60;;;;;;5110907;28;20023;-51
2021/07/02 02:39:56;;;;;;;4.10;2.40;;;22.60;70.60;;;;;;5111003;28;20076;-52
2021/07/02 02:42:24;;;;;;;4.55;3.20;;;22.70;70.20;;;;;;5110373;28;20036;-51
2021/07/02 02:44:51;;;;;;;5.65;2.67;;;22.80;69.40;;;;;;5110924;28;20538;-55
2021/07/02 02:47:18;;;;;;;10.70;3.17;;;22.90;69.40;;;;;;5114939;28;20023;-53
2021/07/02 02:49:46;;;;;;;3.92;2.22;;;22.90;68.60;;;;;;5114014;28;20020;-50
2021/07/02 02:52:13;;;;;;;2.75;2.05;;;22.80;69.20;;;;;;5113676;28;20097;-59
2021/07/02 02:54:40;;;;;;;4.25;2.38;;;22.90;69.00;;;;;;5108306;28;20541;-52
2021/07/02 02:57:09;;;;;;;2.28;2.10;;;23.00;68.80;;;;;;5094121;28;20032;-46
2021/07/02 02:59:37;;;;;;;7.03;2.38;;;23.00;68.70;;;;;;5094242;28;20424;-53
2021/07/02 03:02:05;;;;;;;4.80;2.22;;;23.10;68.30;;;;;;5093671;28;20534;-51
2021/07/02 03:04:34;;;;;;;2.50;2.30;;;23.20;68.40;;;;;;5093754;28;20425;-51
2021/07/02 03:07:03;;;;;;;6.43;2.40;;;23.10;68.50;;;;;;5092663;28;20020;-52
2021/07/02 03:09:31;;;;;;;6.97;2.55;;;23.40;67.90;;;;;;5093869;28;20031;-48
2021/07/02 03:11:58;;;;;;;2.50;1.95;;;23.50;67.50;;;;;;5093490;28;20027;-48
2021/07/02 03:14:26;;;;;;;3.15;2.35;;;23.40;67.50;;;;;;5093711;28;20024;-47
2021/07/02 03:16:53;;;;;;;2.45;1.92;;;23.50;67.10;;;;;;5093363;28;20028;-55
2021/07/02 03:19:21;;;;;;;2.70;1.98;;;23.30;67.70;;;;;;5093486;28;20146;-52
2021/07/02 03:21:49;;;;;;;4.43;1.77;;;23.30;67.80;;;;;;5093281;28;20028;-48
2021/07/02 03:24:17;;;;;;;2.15;1.85;;;23.50;67.40;;;;;;5093090;28;20100;-53
2021/07/02 03:26:44;;;;;;;4.05;2.10;;;23.40;67.60;;;;;;5093019;28;20052;-50
2021/07/02 03:29:11;;;;;;;3.03;1.83;;;23.60;66.60;;;;;;5093299;28;20107;-49
2021/07/02 03:31:39;;;;;;;2.75;2.08;;;23.50;67.50;;;;;;5093050;28;20032;-54
2021/07/02 03:34:06;;;;;;;2.22;1.80;;;23.50;67.00;;;;;;5092618;28;20475;-60
2021/07/02 03:36:36;;;;;;;1.55;1.45;;;23.50;67.40;;;;;;5092927;28;20031;-54
2021/07/02 03:39:07;;;;;;;2.42;1.77;;;23.30;67.90;;;;;;5093180;28;20130;-52
2021/07/02 03:41:34;;;;;;;3.55;1.80;;;23.20;68.00;;;;;;5092820;28;20090;-51
2021/07/02 03:44:01;;;;;;;2.28;1.90;;;23.20;68.10;;;;;;5093144;28;20024;-51
2021/07/02 03:46:29;;;;;;;1.60;1.38;;;23.30;68.40;;;;;;5091982;28;20035;-51
2021/07/02 03:48:56;;;;;;;1.95;1.83;;;23.10;68.70;;;;;;5092800;28;20026;-54
2021/07/02 03:51:24;;;;;;;4.07;1.90;;;23.00;68.90;;;;;;5093014;28;20024;-53
2021/07/02 03:53:51;;;;;;;3.22;1.85;;;23.00;69.40;;;;;;5092849;28;20382;-52
2021/07/02 03:56:18;;;;;;;5.20;1.80;;;23.10;68.60;;;;;;5092132;28;20035;-48
2021/07/02 03:58:46;;;;;;;2.67;1.77;;;23.10;68.80;;;;;;5092504;28;20073;-52
2021/07/02 04:01:13;;;;;;;1.73;1.60;;;23.10;68.60;;;;;;5092158;28;20027;-48
2021/07/02 04:03:41;;;;;;;4.72;2.30;;;23.00;69.10;;;;;;5092282;28;20491;-47
2021/07/02 04:06:08;;;;;;;5.38;1.80;;;23.00;68.20;;;;;;5092687;28;20036;-52
2021/07/02 04:08:36;;;;;;;1.52;1.23;;;22.90;69.60;;;;;;5092900;28;20028;-52
2021/07/02 04:11:06;;;;;;;4.85;1.50;;;22.70;70.00;;;;;;5092210;28;20020;-52
2021/07/02 04:13:33;;;;;;;1.42;1.33;;;22.70;68.30;;;;;;5092710;28;20081;-50
2021/07/02 04:16:01;;;;;;;2.45;1.95;;;22.50;71.70;;;;;;5092729;28;20020;-50
2021/07/02 04:18:28;;;;;;;2.58;1.63;;;22.50;71.40;;;;;;5092406;28;20031;-52
2021/07/02 04:20:55;;;;;;;2.13;1.60;;;22.60;71.70;;;;;;5092205;28;20028;-53
2021/07/02 04:23:23;;;;;;;6.97;2.28;;;22.50;71.90;;;;;;5092207;28;20051;-52
2021/07/02 04:25:50;;;;;;;2.00;1.60;;;22.60;72.10;;;;;;5091813;28;20094;-49
2021/07/02 04:28:17;;;;;;;1.50;1.40;;;22.70;70.70;;;;;;5092116;28;20051;-47
2021/07/02 04:30:45;;;;;;;2.85;1.55;;;22.90;70.70;;;;;;5092179;28;20055;-49
2021/07/02 04:33:12;;;;;;;2.72;1.42;;;22.80;68.90;;;;;;5092131;28;20023;-50
2021/07/02 04:35:39;;;;;;;3.53;1.58;;;22.50;69.40;;;;;;5092054;28;20047;-49
2021/07/02 04:38:08;;;;;;;0.88;0.88;;;22.20;70.10;;;;;;5091891;28;20023;-49
2021/07/02 04:40:35;;;;;;;1.55;1.40;;;21.90;71.90;;;;;;5091661;28;20024;-47
2021/07/02 04:43:02;;;;;;;5.47;1.73;;;21.60;73.00;;;;;;5091669;28;20111;-60
2021/07/02 04:45:30;;;;;;;1.45;1.05;;;21.30;74.10;;;;;;5091692;28;20020;-50
2021/07/02 04:47:57;;;;;;;1.35;1.25;;;21.00;75.50;;;;;;5091687;28;20052;-47
2021/07/02 04:50:24;;;;;;;1.38;1.27;;;20.80;76.60;;;;;;5091710;28;20043;-50
2021/07/02 04:52:52;;;;;;;3.10;1.50;;;20.70;76.60;;;;;;5091351;28;20031;-49
2021/07/02 04:55:19;;;;;;;2.65;1.23;;;20.50;77.60;;;;;;5091309;28;20036;-55
2021/07/02 04:57:46;;;;;;;1.83;1.55;;;20.30;78.50;;;;;;5091595;28;20025;-50
2021/07/02 05:00:14;;;;;;;3.63;1.70;;;20.20;79.40;;;;;;5091650;28;20535;-51
2021/07/02 05:02:42;;;;;;;2.42;1.50;;;20.10;83.00;;;;;;5091143;28;20520;-53
2021/07/02 05:05:09;;;;;;;5.25;1.73;;;20.30;82.90;;;;;;5091031;28;20525;-53
2021/07/02 05:07:37;;;;;;;3.85;1.50;;;20.50;82.20;;;;;;5090610;28;20428;-52
2021/07/02 05:10:06;;;;;;;5.15;1.60;;;20.60;79.60;;;;;;5090666;28;20494;-54
2021/07/02 05:12:34;;;;;;;6.68;1.60;;;20.60;79.40;;;;;;5090863;28;20020;-54
2021/07/02 05:15:02;;;;;;;1.40;1.25;;;20.70;79.30;;;;;;5091071;28;20081;-54
2021/07/02 05:17:29;;;;;;;1.55;1.45;;;20.70;79.80;;;;;;5091059;28;20024;-54
2021/07/02 05:19:57;;;;;;;3.58;1.90;;;20.60;78.90;;;;;;5090771;28;20024;-53
2021/07/02 05:22:25;;;;;;;5.93;2.40;;;20.50;79.10;;;;;;5090695;28;20546;-49
2021/07/02 05:24:52;;;;;;;3.40;1.42;;;20.50;79.40;;;;;;5090833;28;20622;-49
2021/07/02 05:27:20;;;;;;;1.33;1.23;;;20.40;80.20;;;;;;5090766;28;20487;-52
2021/07/02 05:29:47;;;;;;;5.07;1.60;;;20.40;80.60;;;;;;5091102;28;20132;-57
2021/07/02 05:32:15;;;;;;;3.55;1.70;;;20.30;79.60;;;;;;5090879;28;20028;-55
2021/07/02 05:34:42;;;;;;;1.15;1.05;;;20.20;80.40;;;;;;5090413;28;20028;-51
2021/07/02 05:37:09;;;;;;;1.38;1.17;;;20.10;81.30;;;;;;5089999;28;20541;-52
2021/07/02 05:39:37;;;;;;;1.98;1.45;;;20.00;80.60;;;;;;5090735;28;20035;-53
2021/07/02 05:42:04;;;;;;;1.80;1.50;;;19.90;81.20;;;;;;5090197;28;20032;-53
2021/07/02 05:44:32;;;;;;;4.03;1.25;;;19.70;82.30;;;;;;5090825;28;20061;-51
2021/07/02 05:46:59;;;;;;;3.03;1.20;;;19.70;81.50;;;;;;5090275;28;20028;-50
2021/07/02 05:49:27;;;;;;;3.38;1.67;;;19.70;82.30;;;;;;5090783;28;20051;-50
2021/07/02 05:51:54;;;;;;;3.55;1.40;;;19.50;82.90;;;;;;5090419;28;20532;-53
2021/07/02 05:54:21;;;;;;;4.50;1.33;;;19.40;83.70;;;;;;5090750;28;20028;-52
2021/07/02 05:56:51;;;;;;;3.70;1.50;;;19.30;83.30;;;;;;5071134;28;20440;-49
2021/07/02 05:59:18;;;;;;;1.58;1.23;;;19.30;84.40;;;;;;5070106;28;20024;-50
2021/07/02 06:01:45;;;;;;;1.40;1.30;;;19.20;85.10;;;;;;5069879;28;20105;-54
2021/07/02 06:04:14;;;;;;;1.38;1.13;;;19.10;85.30;;;;;;5070138;28;20017;-55
2021/07/02 06:06:42;;;;;;;2.00;1.15;;;19.10;85.60;;;;;;5070228;28;20477;-54
2021/07/02 06:09:09;;;;;;;1.38;1.13;;;18.90;85.50;;;;;;5070215;28;20112;-54
2021/07/02 06:11:36;;;;;;;1.45;1.35;;;19.00;86.00;;;;;;5070062;28;20031;-51
2021/07/02 06:14:04;;;;;;;1.30;1.20;;;18.90;86.60;;;;;;5070465;28;20107;-48
2021/07/02 06:16:31;;;;;;;4.05;1.33;;;18.90;86.90;;;;;;5070391;28;20383;-54
2021/07/02 06:18:58;;;;;;;1.58;1.13;;;18.80;86.70;;;;;;5069815;28;20055;-54
2021/07/02 06:21:27;;;;;;;2.25;1.33;;;18.80;86.60;;;;;;5068700;28;20060;-56
2021/07/02 06:23:54;;;;;;;1.42;1.33;;;18.70;86.80;;;;;;5070327;28;20383;-53
2021/07/02 06:26:22;;;;;;;1.83;1.15;;;18.70;87.60;;;;;;5069964;28;20041;-51
2021/07/02 06:28:49;;;;;;;3.05;1.10;;;18.60;87.20;;;;;;5069223;28;20029;-51
2021/07/02 06:31:17;;;;;;;13.68;2.00;;;18.60;87.50;;;;;;5070095;28;20021;-56
2021/07/02 06:33:44;;;;;;;3.95;1.02;;;18.60;87.60;;;;;;5069795;28;20028;-52
2021/07/02 06:36:11;;;;;;;3.72;1.58;;;18.50;87.70;;;;;;5069987;28;20537;-51
2021/07/02 06:38:39;;;;;;;1.42;1.30;;;18.50;87.20;;;;;;5070084;28;20051;-53
2021/07/02 06:41:06;;;;;;;1.63;1.10;;;18.50;88.00;;;;;;5067993;28;20673;-53
2021/07/02 06:43:33;;;;;;;1.48;1.33;;;18.50;88.90;;;;;;5069898;28;20047;-52
2021/07/02 06:46:01;;;;;;;1.40;1.30;;;18.40;88.80;;;;;;5068924;28;20079;-56
2021/07/02 06:48:28;;;;;;;1.58;1.20;;;18.40;89.30;;;;;;5069818;28;20534;-53
2021/07/02 06:50:56;;;;;;;1.42;1.10;;;18.30;89.20;;;;;;5069594;28;20107;-54
2021/07/02 06:53:25;;;;;;;11.10;1.63;;;18.30;89.50;;;;;;5070395;28;20407;-53
2021/07/02 06:55:53;;;;;;;4.38;1.40;;;18.30;88.60;;;;;;5070152;28;20094;-53
2021/07/02 06:58:21;;;;;;;3.38;1.40;;;18.30;88.80;;;;;;5070272;28;20023;-53
2021/07/02 07:00:48;;;;;;;4.05;1.23;;;18.30;89.00;;;;;;5069694;28;20032;-52
2021/07/02 07:03:16;;;;;;;1.75;1.40;;;18.20;89.60;;;;;;5070524;28;20110;-53
2021/07/02 07:05:44;;;;;;;3.65;1.20;;;18.20;88.80;;;;;;5070427;28;20017;-52
2021/07/02 07:08:11;;;;;;;2.33;1.70;;;18.20;88.90;;;;;;5070065;28;20375;-50
2021/07/02 07:10:39;;;;;;;1.20;0.93;;;18.20;89.50;;;;;;5069668;28;20025;-55
2021/07/02 07:13:06;;;;;;;1.42;1.33;;;18.10;89.40;;;;;;5069623;28;20519;-56
2021/07/02 07:15:34;;;;;;;5.85;1.92;;;18.10;89.90;;;;;;5069628;28;20028;-53
2021/07/02 07:18:02;;;;;;;4.00;1.48;;;18.00;89.10;;;;;;5069495;28;20562;-51
2021/07/02 07:20:30;;;;;;;3.88;1.60;;;18.00;89.90;;;;;;5069979;28;20025;-49
2021/07/02 07:22:57;;;;;;;2.80;1.27;;;18.00;90.10;;;;;;5069424;28;20758;-52
2021/07/02 07:25:25;;;;;;;2.95;1.80;;;17.90;90.20;;;;;;5069684;28;20085;-54
2021/07/02 07:27:53;;;;;;;1.83;1.23;;;17.90;90.00;;;;;;5068958;28;20410;-54
2021/07/02 07:30:21;;;;;;;3.08;1.80;;;17.90;90.40;;;;;;5069365;28;20027;-52
2021/07/02 07:32:52;;;;;;;4.68;1.70;;;17.80;90.00;;;;;;5072227;28;20391;-54
2021/07/02 07:37:54;;;;;;;2.33;1.58;;;17.80;90.10;;;;;;5073263;28;20461;-57
2021/07/02 07:40:23;;;;;;;1.70;1.52;;;17.80;90.20;;;;;;5072332;28;20025;-53
2021/07/02 07:42:52;;;;;;;1.85;1.60;;;17.80;90.20;;;;;;5072607;28;20036;-52
2021/07/02 07:45:20;;;;;;;5.13;2.60;;;17.70;90.10;;;;;;5073189;28;20371;-52
2021/07/02 07:47:47;;;;;;;5.38;2.25;;;17.70;89.90;;;;;;5073253;28;20105;-57
2021/07/02 07:50:22;;;;;;;3.08;1.92;;;17.60;90.10;;;;;;5072916;28;20033;-52
2021/07/02 07:53:10;;;;;;;4.40;2.95;;;17.70;90.20;;;;;;5072693;28;20046;-49
2021/07/02 07:55:37;;;;;;;3.95;2.80;;;17.70;90.30;;;;;;5072759;28;20360;-49
2021/07/02 07:58:05;;;;;;;3.80;2.67;;;17.60;90.00;;;;;;5072201;28;20104;-50
2021/07/02 08:00:32;;;;;;;4.40;3.17;;;17.60;90.30;;;;;;5072299;28;20016;-55
2021/07/02 08:03:00;;;;;;;4.40;3.20;;;17.50;90.30;;;;;;5072393;28;20032;-50
2021/07/02 08:05:28;;;;;;;2.88;2.55;;;17.50;90.20;;;;;;5072525;28;20567;-50
2021/07/02 08:07:56;;;;;;;3.45;2.38;;;17.50;90.40;;;;;;5072311;28;20116;-53
2021/07/02 08:10:26;;;;;;;3.35;2.47;;;17.50;90.50;;;;;;5071831;28;20033;-50
2021/07/02 08:12:53;;;;;;;2.40;1.73;;;17.40;90.40;;;;;;5072058;28;20483;-56
2021/07/02 08:15:21;;;;;;;3.50;2.50;;;17.40;90.50;;;;;;5072285;28;20030;-51
2021/07/02 08:17:48;;;;;;;3.22;2.65;;;17.40;90.20;;;;;;5072203;28;20090;-52
2021/07/02 08:20:15;;;;;;;2.30;1.92;;;17.40;90.30;;;;;;5072172;28;20536;-50
2021/07/02 08:22:43;;;;;;;5.32;2.50;;;17.40;90.50;;;;;;5072268;28;20513;-55
2021/07/02 08:25:11;;;;;;;3.03;1.88;;;17.30;90.40;;;;;;5071954;28;20024;-51
2021/07/02 08:30:25;;;;;;;2.90;2.05;;;17.30;90.70;;;;;;5072061;28;20112;-53
2021/07/02 08:32:52;;;;;;;3.47;1.95;;;17.20;90.50;;;;;;5071992;28;20023;-53
2021/07/02 08:35:23;;;;;;;3.42;2.10;;;17.20;90.70;;;;;;5072140;28;20032;-52
2021/07/02 08:37:52;;;;;;;2.30;1.60;;;17.20;90.70;;;;;;5072195;28;20024;-51
2021/07/02 08:40:20;;;;;;;4.15;2.22;;;17.20;90.80;;;;;;5071856;28;20565;-50
2021/07/02 08:42:49;;;;;;;2.13;1.92;;;17.10;90.70;;;;;;5070599;28;20071;-52
2021/07/02 08:45:16;;;;;;;3.45;2.20;;;17.10;90.80;;;;;;5054262;28;20562;-53
2021/07/02 08:47:45;;;;;;;2.13;1.90;;;17.10;90.80;;;;;;5069952;28;20487;-51
2021/07/02 08:50:14;;;;;;;2.72;2.33;;;17.10;90.80;;;;;;5071820;28;20463;-53
2021/07/02 08:52:41;;;;;;;3.17;2.83;;;17.00;90.70;;;;;;5072166;28;20028;-53
2021/07/02 08:55:12;;;;;;;3.20;2.22;;;17.00;90.70;;;;;;5071589;28;20334;-53
2021/07/02 08:57:40;;;;;;;3.08;2.58;;;17.00;90.70;;;;;;5092013;28;20020;-54
2021/07/02 09:00:08;;;;;;;4.05;2.20;;;17.00;90.70;;;;;;5091970;28;20024;-55
2021/07/02 09:02:38;;;;;;;3.40;2.65;;;17.00;90.70;;;;;;5092067;28;20028;-54
2021/07/02 09:05:38;;;;;;;8.07;2.63;;;17.00;90.70;;;;;;5091473;28;20082;-51
2021/07/02 09:08:16;;;;;;;3.00;2.25;;;16.90;90.70;;;;;;5086761;28;20033;-53
2021/07/02 09:10:44;;;;;;;2.30;2.00;;;16.90;90.80;;;;;;5090921;28;20043;-54
2021/07/02 09:13:14;;;;;;;2.83;2.10;;;16.90;90.90;;;;;;5091306;28;20133;-50
2021/07/02 09:15:49;;;;;;;2.15;1.95;;;16.90;90.90;;;;;;5091687;28;20468;-54
2021/07/02 09:18:17;;;;;;;4.50;2.53;;;16.90;90.80;;;;;;5089709;28;20034;-54
2021/07/02 09:20:47;;;;;;;5.40;2.05;;;16.90;90.80;;;;;;5091516;28;20024;-56
2021/07/02 09:23:17;;;;;;;5.80;2.10;;;16.90;90.90;;;;;;5091386;28;20110;-52
2021/07/02 09:25:50;;;;;;;3.83;1.95;;;16.90;90.90;;;;;;5091113;28;20039;-51
2021/07/02 09:28:23;;;;;;;4.43;2.17;;;16.90;91.00;;;;;;5091765;28;20672;-55
2021/07/02 09:30:53;;;;;;;4.82;2.20;;;16.90;90.90;;;;;;5089661;28;20024;-57
2021/07/02 09:33:25;;;;;;;3.22;2.40;;;16.80;90.90;;;;;;5088551;28;20020;-64
2021/07/02 09:36:00;;;;;;;3.03;2.00;;;16.90;90.90;;;;;;5091003;28;20027;-52
2021/07/02 09:38:40;;;;;;;4.68;3.00;;;16.90;91.00;;;;;;5091342;28;20028;-54
2021/07/02 09:41:09;;;;;;;4.38;2.30;;;16.80;90.90;;;;;;5091167;28;20027;-52
2021/07/02 09:43:39;;;;;;;3.78;2.70;;;16.80;90.90;;;;;;5091401;28;20027;-51
2021/07/02 09:46:08;;;;;;;3.15;2.22;;;16.80;90.90;;;;;;5091450;28;20100;-54
2021/07/02 09:48:42;;;;;;;3.60;2.20;;;16.80;91.00;;;;;;5091541;28;20074;-50
2021/07/02 09:51:13;;;;;;;6.95;2.00;;;16.80;91.00;;;;;;5091291;28;20441;-51
2021/07/02 09:53:41;;;;;;;3.97;2.65;;;16.80;91.00;;;;;;5091208;28;20030;-55
2021/07/02 09:56:18;;;;;;;4.00;2.53;;;16.70;90.90;;;;;;5090850;28;20024;-56
2021/07/02 09:58:45;;;;;;;3.30;2.45;;;16.80;91.10;;;;;;5091074;28;20027;-52
2021/07/02 10:01:27;;;;;;;4.00;2.30;;;16.80;91.10;;;;;;5090514;28;20046;-54
2021/07/02 10:04:06;;;;;;;3.75;2.85;;;16.70;91.00;;;;;;5091047;28;20359;-56
2021/07/02 10:06:33;;;;;;;4.03;2.33;;;16.70;91.30;;;;;;5090774;28;20576;-56
2021/07/02 10:09:03;;;;;;;3.13;2.30;;;16.70;91.10;;;;;;5090346;28;20068;-53
2021/07/02 10:11:32;;;;;;;3.33;2.90;;;16.70;91.00;;;;;;5090857;28;20028;-49
2021/07/02 10:14:00;;;;;;;3.80;2.65;;;16.70;91.00;;;;;;5091125;28;20055;-54
2021/07/02 10:16:30;;;;;;;4.45;2.95;;;16.70;91.00;;;;;;5090715;28;20069;-54
2021/07/02 10:19:03;;;;;;;3.22;2.63;;;16.70;91.10;;;;;;5090512;28;20030;-52
2021/07/02 10:21:31;;;;;;;2.83;2.47;;;16.70;91.00;;;;;;5090495;28;20425;-54
2021/07/02 10:24:01;;;;;;;3.30;2.58;;;16.60;91.00;;;;;;5090638;28;20020;-52
2021/07/02 10:26:30;;;;;;;2.50;2.28;;;16.60;91.10;;;;;;5090554;28;20079;-50
2021/07/02 10:28:58;;;;;;;6.07;2.40;;;16.60;91.10;;;;;;5090260;28;20070;-53
2021/07/02 10:31:27;;;;;;;3.85;2.50;;;16.60;91.10;;;;;;5089465;28;20035;-57
2021/07/02 10:33:58;;;;;;;3.00;2.42;;;16.60;91.10;;;;;;5090730;28;20019;-53
2021/07/02 10:36:33;;;;;;;3.63;2.60;;;16.60;91.10;;;;;;5090611;28;20032;-55
2021/07/02 10:39:04;;;;;;;2.95;2.60;;;16.50;91.40;;;;;;5090508;28;20033;-51
2021/07/02 10:41:32;;;;;;;3.10;2.50;;;16.50;91.10;;;;;;5090385;28;20028;-54
2021/07/02 10:44:05;;;;;;;3.80;2.55;;;16.50;91.10;;;;;;5090142;28;20020;-56
2021/07/02 10:46:35;;;;;;;4.22;2.42;;;16.50;91.20;;;;;;5090547;28;20026;-57
2021/07/02 10:49:13;;;;;;;3.42;2.33;;;16.50;91.20;;;;;;5090423;28;20065;-54
2021/07/02 10:51:46;;;;;;;3.10;2.80;;;16.40;91.10;;;;;;5090745;28;20052;-50
2021/07/02 10:54:28;;;;;;;2.70;2.33;;;16.50;91.20;;;;;;5090497;28;20046;-51
2021/07/02 10:57:12;;;;;;;3.70;2.60;;;16.40;91.10;;;;;;5089599;28;20029;-49
2021/07/02 10:59:44;;;;;;;3.58;2.33;;;16.40;91.10;;;;;;5090186;28;20070;-53
2021/07/02 11:02:12;;;;;;;6.65;2.92;;;16.40;91.10;;;;;;5090433;28;20101;-55
2021/07/02 11:04:43;;;;;;;2.88;2.30;;;16.40;91.10;;;;;;5090437;28;20487;-56
2021/07/02 11:07:14;;;;;;;3.85;2.30;;;16.40;91.10;;;;;;5092207;28;20559;-51
2021/07/02 11:09:54;;;;;;;;;;;;;;;;;;;;;
2021/07/02 11:12:32;;;;;;;2.30;2.10;;;16.30;91.10;;;;;;5094311;28;20378;-49
2021/07/02 11:15:03;;;;;;;2.55;2.15;;;16.30;91.20;;;;;;5093851;28;20485;-50
2021/07/02 11:17:33;;;;;;;4.60;2.17;;;16.30;91.10;;;;;;5093472;28;20032;-53
2021/07/02 11:20:09;;;;;;;2.70;2.38;;;16.30;91.20;;;;;;5094192;28;20020;-51
2021/07/02 11:23:07;;;;;;;2.55;2.35;;;16.30;91.20;;;;;;5094159;28;20023;-52
2021/07/02 11:25:51;;;;;;;3.05;2.28;;;16.30;91.10;;;;;;5093599;28;20379;-55
2021/07/02 11:28:49;;;;;;;2.38;1.77;;;16.30;91.20;;;;;;5094092;28;20107;-55
2021/07/02 11:31:18;;;;;;;2.20;2.00;;;16.20;91.20;;;;;;5093948;28;20387;-51
2021/07/02 11:33:46;;;;;;;2.50;2.20;;;16.20;91.20;;;;;;5093804;28;20024;-51
2021/07/02 11:36:19;;;;;;;5.33;2.40;;;16.20;91.20;;;;;;5092748;28;20052;-52
2021/07/02 11:38:52;;;;;;;3.00;2.53;;;16.20;91.20;;;;;;5093581;28;20028;-56
2021/07/02 11:41:33;;;;;;;2.88;2.35;;;16.20;91.20;;;;;;5093731;28;20024;-50
2021/07/02 11:44:03;;;;;;;3.53;2.42;;;16.20;91.30;;;;;;5093763;28;20032;-53
2021/07/02 11:46:31;;;;;;;2.50;2.20;;;16.10;91.20;;;;;;5093696;28;20595;-52
2021/07/02 11:48:59;;;;;;;3.20;2.67;;;16.10;91.20;;;;;;5092642;28;20788;-51
2021/07/02 11:51:33;;;;;;;3.40;2.58;;;16.10;91.20;;;;;;5092368;28;20047;-48
2021/07/02 11:54:05;;;;;;;3.17;2.30;;;16.10;91.20;;;;;;5091337;28;20767;-50
2021/07/02 11:56:35;;;;;;;3.13;2.22;;;16.10;91.30;;;;;;5089458;28;20455;-53
2021/07/02 11:59:03;;;;;;;2.33;2.00;;;16.00;91.30;;;;;;5090215;28;20044;-49
2021/07/02 12:01:57;;;;;;;2.10;1.90;;;16.00;91.30;;;;;;5091246;28;20047;-52
2021/07/02 12:04:31;;;;;;;2.70;2.08;;;16.00;91.30;;;;;;5089180;28;20043;-53
2021/07/02 12:06:59;;;;;;;3.45;2.50;;;16.00;91.20;;;;;;5092247;28;20036;-50
2021/07/02 12:09:28;;;;;;;3.58;2.45;;;16.00;91.60;;;;;;5091015;28;20474;-48
2021/07/02 12:11:58;;;;;;;3.25;2.45;;;16.00;91.30;;;;;;5091824;28;20036;-53
2021/07/02 12:14:31;;;;;;;2.60;2.33;;;16.00;91.30;;;;;;5092050;28;20024;-50
2021/07/02 12:17:00;;;;;;;2.63;2.00;;;15.90;91.30;;;;;;5106536;28;20118;-48
2021/07/02 12:19:29;;;;;;;2.72;2.10;;;16.00;91.30;;;;;;5110464;28;20122;-52
2021/07/02 12:22:11;;;;;;;3.28;2.40;;;15.90;91.30;;;;;;5111909;28;20094;-48
2021/07/02 12:24:41;;;;;;;2.50;2.30;;;15.90;91.30;;;;;;5111915;28;20024;-53
2021/07/02 12:27:19;;;;;;;3.53;2.20;;;15.90;91.30;;;;;;5111527;28;20332;-54
2021/07/02 12:29:48;;;;;;;2.53;1.95;;;15.90;91.30;;;;;;5112019;28;20040;-54
2021/07/02 12:32:16;;;;;;;3.13;2.45;;;15.80;91.30;;;;;;5111885;28;20050;-49
2021/07/02 12:34:49;;;;;;;3.63;2.35;;;15.90;91.30;;;;;;5111777;28;20027;-53
2021/07/02 12:37:23;;;;;;;;;;;15.80;91.30;;;;;;5112232;28;20053;-56
2021/07/02 12:39:57;;;;;;;3.78;2.10;;;15.80;91.30;;;;;;5111571;28;19911;-51
2021/07/02 12:42:45;;;;;;;3.65;1.83;;;15.80;91.30;;;;;;5111866;28;20032;-52
2021/07/02 12:45:15;;;;;;;2.55;2.08;;;15.80;91.30;;;;;;5111655;28;20047;-53
2021/07/02 12:47:44;;;;;;;3.03;2.38;;;15.80;91.30;;;;;;5111563;28;20123;-56
2021/07/02 12:50:22;;;;;;;5.15;2.60;;;15.80;91.30;;;;;;5111489;28;20024;-54
2021/07/02 12:55:42;;;;;;;2.97;2.20;;;15.70;91.20;;;;;;5111804;28;20402;-50
2021/07/02 12:58:09;;;;;;;2.55;2.13;;;15.70;91.30;;;;;;5111360;27;20773;-52
2021/07/02 13:00:37;;;;;;;4.80;2.33;;;15.70;91.30;;;;;;5111250;28;20110;-49
2021/07/02 13:03:05;;;;;;;3.72;2.63;;;15.70;91.30;;;;;;5110993;28;20466;-49
2021/07/02 13:05:36;;;;;;;3.05;1.98;;;15.70;91.30;;;;;;5111052;28;20170;-50
2021/07/02 13:08:11;;;;;;;3.03;2.25;;;15.70;91.30;;;;;;5110967;28;20023;-50